Terminal Aerodrome Forecast
Issued by NWS

Home | Current Version | Previous Version | Text Only | Print | Product List | Glossary On
Versions: 1 2 3 4 5 6 7 8 9 10 11 12 13 14 15 16 17 18 19 20 21 22 23 24 25 26 27 28 29 30 31 32 33 34
000
FTUS45 KGJT 262341
TAFASE
TAF
KASE 262341Z 2700/2724 33006KT P6SM VCTS SCT060CB BKN080
      TEMPO 2700/2702 VRB12G18KT P6SM -TSRA BKN040CB OVC060
     FM270200 16006KT P6SM VCTS BKN050CB
     FM270600 VRB04KT P6SM SCT060
     FM271800 36008G18KT P6SM SCT080=

USA.gov is the U.S. government's official web portal to all federal, state and local government web resources and services.